createdAt,value
2018-09-26T00:00:46.485Z,0
2018-09-26T00:01:46.467Z,0
2018-09-26T00:02:46.458Z,0
2018-09-26T00:03:46.699Z,0
2018-09-26T00:04:46.689Z,0
2018-09-26T00:05:46.422Z,0
2018-09-26T00:06:46.408Z,0
2018-09-26T00:07:46.654Z,0
2018-09-26T00:08:46.633Z,0
2018-09-26T00:09:46.624Z,0
2018-09-26T00:10:46.611Z,0
2018-09-26T00:11:46.603Z,0
2018-09-26T00:12:46.587Z,0
2018-09-26T00:13:46.579Z,0
2018-09-26T00:14:46.311Z,0
2018-09-26T00:15:46.309Z,0
2018-09-26T00:16:46.046Z,0
2018-09-26T00:17:46.537Z,0
2018-09-26T00:18:46.525Z,0
2018-09-26T00:19:46.505Z,0
2018-09-26T00:20:46.503Z,0
2018-09-26T00:21:46.482Z,0
2018-09-26T00:22:46.470Z,0
2018-09-26T00:23:46.457Z,0
2018-09-26T00:24:46.455Z,0
2018-09-26T00:25:46.439Z,0
2018-09-26T00:26:46.169Z,0
2018-09-26T00:27:46.412Z,0
2018-09-26T00:28:46.401Z,0
2018-09-26T00:29:46.389Z,0
2018-09-26T00:30:46.374Z,0
2018-09-26T00:31:46.385Z,0
2018-09-26T00:32:46.360Z,0
2018-09-26T00:33:45.850Z,0
2018-09-26T00:34:46.387Z,0
2018-09-26T00:35:46.631Z,0
2018-09-26T00:36:45.805Z,0
2018-09-26T00:37:46.386Z,0
2018-09-26T00:38:46.284Z,0
2018-09-26T00:39:46.270Z,0
2018-09-26T00:40:46.255Z,0
2018-09-26T00:41:46.255Z,0
2018-09-26T00:42:46.236Z,0
2018-09-26T00:43:46.222Z,0
2018-09-26T00:44:46.212Z,0
2018-09-26T00:45:46.200Z,0
2018-09-26T00:46:45.935Z,0
2018-09-26T00:47:46.176Z,0
2018-09-26T00:48:46.166Z,0
2018-09-26T00:49:46.158Z,0
2018-09-26T00:50:46.145Z,0
2018-09-26T00:51:46.131Z,0
2018-09-26T00:52:45.861Z,0
2018-09-26T00:53:45.857Z,0
2018-09-26T00:54:46.101Z,0
2018-09-26T00:55:46.085Z,0
2018-09-26T00:56:46.069Z,0
2018-09-26T00:57:46.052Z,0
2018-09-26T00:58:46.045Z,0
2018-09-26T00:59:46.041Z,0
2018-09-26T01:00:46.018Z,0
2018-09-26T01:01:46.005Z,0
2018-09-26T01:02:45.749Z,0
2018-09-26T01:03:45.741Z,0
2018-09-26T01:04:45.976Z,0
2018-09-26T01:05:45.961Z,0
2018-09-26T01:06:45.952Z,0
2018-09-26T01:07:45.960Z,0
2018-09-26T01:08:45.680Z,0
2018-09-26T01:09:45.915Z,0
2018-09-26T01:10:45.903Z,0
2018-09-26T01:11:45.892Z,0
2018-09-26T01:12:45.625Z,0
2018-09-26T01:13:45.871Z,0
2018-09-26T01:14:45.355Z,0
2018-09-26T01:15:45.621Z,0
2018-09-26T01:16:45.829Z,0
2018-09-26T01:17:45.821Z,0
2018-09-26T01:18:45.553Z,0
2018-09-26T01:19:45.856Z,0
2018-09-26T01:20:45.788Z,0
2018-09-26T01:21:45.768Z,0
2018-09-26T01:22:45.516Z,0
2018-09-26T01:23:45.493Z,0
2018-09-26T01:24:45.482Z,0
2018-09-26T01:25:45.734Z,0
2018-09-26T01:26:45.721Z,0
2018-09-26T01:27:45.700Z,0
2018-09-26T01:28:45.688Z,0
2018-09-26T01:29:45.682Z,0
2018-09-26T01:30:45.676Z,0
2018-09-26T01:31:45.652Z,0
2018-09-26T01:32:45.141Z,0
2018-09-26T01:33:45.124Z,0
2018-09-26T01:34:45.614Z,0
2018-09-26T01:35:45.610Z,0
2018-09-26T01:36:45.590Z,0
2018-09-26T01:37:45.584Z,0
2018-09-26T01:38:45.316Z,0
2018-09-26T01:39:45.560Z,0
2018-09-26T01:40:45.551Z,0
2018-09-26T01:41:45.736Z,0
2018-09-26T01:42:45.531Z,0
2018-09-26T01:43:45.509Z,0
2018-09-26T01:44:45.502Z,0
2018-09-26T01:45:45.488Z,0
2018-09-26T01:46:44.967Z,0
2018-09-26T01:47:45.461Z,0
2018-09-26T01:48:45.447Z,0
2018-09-26T01:49:45.437Z,0
2018-09-26T01:50:45.430Z,0
2018-09-26T01:51:45.413Z,0
2018-09-26T01:52:45.404Z,0
2018-09-26T01:53:45.396Z,0
2018-09-26T01:54:45.375Z,0
2018-09-26T01:55:45.362Z,0
2018-09-26T01:56:44.850Z,0
2018-09-26T01:57:45.092Z,0
2018-09-26T01:58:45.325Z,0
2018-09-26T01:59:45.321Z,0
2018-09-26T02:00:45.299Z,0
2018-09-26T02:01:45.288Z,0
2018-09-26T02:02:45.030Z,0
2018-09-26T02:03:45.263Z,0
2018-09-26T02:04:45.263Z,0
2018-09-26T02:05:45.247Z,0
2018-09-26T02:06:44.978Z,0
2018-09-26T02:07:45.218Z,0
2018-09-26T02:08:45.211Z,0
2018-09-26T02:09:45.223Z,0
2018-09-26T02:10:45.182Z,0
2018-09-26T02:11:45.162Z,0
2018-09-26T02:12:44.654Z,0
2018-09-26T02:13:45.140Z,0
2018-09-26T02:14:44.882Z,0
2018-09-26T02:15:45.116Z,0
2018-09-26T02:16:45.101Z,0
2018-09-26T02:17:44.842Z,0
2018-09-26T02:18:45.087Z,0
2018-09-26T02:19:45.078Z,0
2018-09-26T02:20:45.054Z,0
2018-09-26T02:21:45.041Z,0
2018-09-26T02:22:44.528Z,0
2018-09-26T02:23:45.372Z,0
2018-09-26T02:24:45.030Z,0
2018-09-26T02:25:45.050Z,0
2018-09-26T02:26:44.982Z,0
2018-09-26T02:27:44.969Z,0
2018-09-26T02:28:44.705Z,0
2018-09-26T02:29:44.944Z,0
2018-09-26T02:30:44.937Z,0
2018-09-26T02:31:44.671Z,0
2018-09-26T02:32:44.946Z,0
2018-09-26T02:33:44.903Z,0
2018-09-26T02:34:44.912Z,0
2018-09-26T02:35:44.674Z,0
2018-09-26T02:36:44.866Z,0
2018-09-26T02:37:44.853Z,0
2018-09-26T02:38:44.850Z,0
2018-09-26T02:39:44.840Z,0
2018-09-26T02:40:44.562Z,0
2018-09-26T02:41:44.802Z,0
2018-09-26T02:42:44.787Z,0
2018-09-26T02:43:44.535Z,0
2018-09-26T02:44:44.514Z,0
2018-09-26T02:45:44.762Z,0
2018-09-26T02:46:44.505Z,0
2018-09-26T02:47:44.225Z,0
2018-09-26T02:48:44.732Z,0
2018-09-26T02:49:44.203Z,0
2018-09-26T02:50:44.187Z,0
2018-09-26T02:51:44.689Z,0
2018-09-26T02:52:44.675Z,0
2018-09-26T02:53:44.654Z,0
2018-09-26T02:54:44.645Z,0
2018-09-26T02:55:44.697Z,0
2018-09-26T02:56:44.376Z,0
2018-09-26T02:57:44.360Z,0
2018-09-26T02:58:44.368Z,0
2018-09-26T02:59:44.591Z,0
2018-09-26T03:00:44.322Z,0
2018-09-26T03:01:44.318Z,0
2018-09-26T03:02:44.309Z,0
2018-09-26T03:03:44.535Z,0
2018-09-26T03:04:44.273Z,0
2018-09-26T03:05:44.517Z,0
2018-09-26T03:06:44.511Z,0
2018-09-26T03:07:44.241Z,0
2018-09-26T03:08:44.487Z,0
2018-09-26T03:09:44.214Z,0
2018-09-26T03:10:44.232Z,0
2018-09-26T03:11:44.199Z,0
2018-09-26T03:12:44.175Z,0
2018-09-26T03:13:44.181Z,0
2018-09-26T03:14:44.409Z,0
2018-09-26T03:15:44.397Z,0
2018-09-26T03:16:44.376Z,0
2018-09-26T03:17:44.526Z,0
2018-09-26T03:18:44.364Z,0
2018-09-26T03:19:44.339Z,0
2018-09-26T03:20:44.337Z,0
2018-09-26T03:21:44.366Z,0
2018-09-26T03:22:44.058Z,0
2018-09-26T03:23:44.297Z,0
2018-09-26T03:24:44.292Z,0
2018-09-26T03:25:44.270Z,0
2018-09-26T03:26:44.259Z,0
2018-09-26T03:27:44.252Z,0
2018-09-26T03:28:44.244Z,0
2018-09-26T03:29:43.967Z,0
2018-09-26T03:30:43.974Z,0
2018-09-26T03:31:44.222Z,0
2018-09-26T03:32:43.703Z,0
2018-09-26T03:33:44.603Z,0
2018-09-26T03:34:44.222Z,0
2018-09-26T03:35:43.650Z,0
2018-09-26T03:36:44.142Z,0
2018-09-26T03:37:43.871Z,0
2018-09-26T03:38:44.122Z,0
2018-09-26T03:39:44.110Z,0
2018-09-26T03:40:44.112Z,0
2018-09-26T03:41:44.093Z,0
2018-09-26T03:42:44.065Z,0
2018-09-26T03:43:43.817Z,0
2018-09-26T03:44:43.790Z,0
2018-09-26T03:45:43.784Z,0
2018-09-26T03:46:43.513Z,0
2018-09-26T03:47:43.747Z,0
2018-09-26T03:48:44.000Z,0
2018-09-26T03:49:43.977Z,0
2018-09-26T03:50:43.731Z,0
2018-09-26T03:51:43.705Z,0
2018-09-26T03:52:43.688Z,0
2018-09-26T03:53:43.429Z,0
2018-09-26T03:54:43.918Z,0
2018-09-26T03:55:43.907Z,0
2018-09-26T03:56:43.639Z,0
2018-09-26T03:57:43.880Z,0
2018-09-26T03:58:43.876Z,0
2018-09-26T03:59:43.857Z,0
2018-09-26T04:00:43.853Z,0
2018-09-26T04:01:43.586Z,0
2018-09-26T04:02:43.580Z,0
2018-09-26T04:03:43.563Z,0
2018-09-26T04:04:43.811Z,0
2018-09-26T04:05:43.787Z,0
2018-09-26T04:06:43.524Z,0
2018-09-26T04:07:43.504Z,0
2018-09-26T04:08:43.756Z,0
2018-09-26T04:09:43.750Z,0
2018-09-26T04:10:43.725Z,0
2018-09-26T04:11:43.205Z,0
2018-09-26T04:12:44.049Z,0
2018-09-26T04:13:43.188Z,0
2018-09-26T04:14:43.672Z,0
2018-09-26T04:15:44.070Z,0
2018-09-26T04:16:43.396Z,0
2018-09-26T04:17:43.647Z,0
2018-09-26T04:18:43.623Z,0
2018-09-26T04:19:43.625Z,0
2018-09-26T04:20:43.368Z,0
2018-09-26T04:21:43.593Z,0
2018-09-26T04:22:43.612Z,0
2018-09-26T04:23:43.567Z,0
2018-09-26T04:24:43.305Z,0
2018-09-26T04:25:43.544Z,0
2018-09-26T04:26:44.897Z,0
2018-09-26T04:27:43.353Z,0
2018-09-26T04:28:43.540Z,0
2018-09-26T04:29:43.055Z,0
2018-09-26T04:30:43.509Z,0
2018-09-26T04:31:43.466Z,0
2018-09-26T04:32:44.061Z,0
2018-09-26T04:33:44.426Z,0
2018-09-26T04:34:43.456Z,0
2018-09-26T04:35:43.423Z,0
2018-09-26T04:36:43.166Z,0
2018-09-26T04:37:43.395Z,0
2018-09-26T04:38:43.327Z,0
2018-09-26T04:39:43.120Z,0
2018-09-26T04:40:43.364Z,0
2018-09-26T04:41:43.098Z,0
2018-09-26T04:42:42.837Z,0
2018-09-26T04:43:43.071Z,0
2018-09-26T04:44:43.060Z,0
2018-09-26T04:45:43.305Z,0
2018-09-26T04:46:43.292Z,0
2018-09-26T04:47:43.274Z,0
2018-09-26T04:48:43.014Z,0
2018-09-26T04:49:43.255Z,0
2018-09-26T04:50:43.398Z,0
2018-09-26T04:51:43.233Z,0
2018-09-26T04:52:43.215Z,5
2018-09-26T04:53:43.211Z,5
2018-09-26T04:54:43.194Z,5
2018-09-26T04:55:42.927Z,5
2018-09-26T04:56:42.920Z,5
2018-09-26T04:57:43.194Z,5
2018-09-26T04:58:42.893Z,5
2018-09-26T04:59:42.882Z,10
2018-09-26T05:00:43.126Z,10
2018-09-26T05:01:43.113Z,10
2018-09-26T05:02:42.854Z,10
2018-09-26T05:03:43.096Z,10
2018-09-26T05:04:43.090Z,15
2018-09-26T05:05:43.079Z,15
2018-09-26T05:06:42.800Z,15
2018-09-26T05:07:43.040Z,20
2018-09-26T05:08:42.526Z,20
2018-09-26T05:09:43.025Z,20
2018-09-26T05:10:43.009Z,25
2018-09-26T05:11:43.001Z,25
2018-09-26T05:12:42.990Z,25
2018-09-26T05:13:42.719Z,30
2018-09-26T05:14:43.257Z,30
2018-09-26T05:15:42.699Z,30
2018-09-26T05:16:42.936Z,35
2018-09-26T05:17:42.931Z,35
2018-09-26T05:18:42.917Z,40
2018-09-26T05:19:42.656Z,40
2018-09-26T05:20:42.639Z,45
2018-09-26T05:21:42.627Z,45
2018-09-26T05:22:42.853Z,45
2018-09-26T05:23:42.856Z,50
2018-09-26T05:24:42.855Z,55
2018-09-26T05:25:42.845Z,55
2018-09-26T05:26:42.819Z,55
2018-09-26T05:27:42.818Z,60
2018-09-26T05:28:42.798Z,65
2018-09-26T05:29:42.788Z,65
2018-09-26T05:30:42.524Z,70
2018-09-26T05:31:42.268Z,70
2018-09-26T05:32:42.750Z,75
2018-09-26T05:33:42.494Z,80
2018-09-26T05:34:42.729Z,85
2018-09-26T05:35:42.464Z,85
2018-09-26T05:36:42.712Z,85
2018-09-26T05:37:42.694Z,85
2018-09-26T05:38:42.682Z,90
2018-09-26T05:39:42.680Z,95
2018-09-26T05:40:42.663Z,100
2018-09-26T05:41:42.946Z,105
2018-09-26T05:42:42.647Z,105
2018-09-26T05:43:42.629Z,115
2018-09-26T05:44:42.614Z,120
2018-09-26T05:45:42.610Z,125
2018-09-26T05:46:42.591Z,125
2018-09-26T05:47:42.329Z,130
2018-09-26T05:48:42.570Z,135
2018-09-26T05:49:42.309Z,140
2018-09-26T05:50:42.561Z,145
2018-09-26T05:51:42.542Z,155
2018-09-26T05:52:42.278Z,160
2018-09-26T05:53:42.843Z,160
2018-09-26T05:54:42.257Z,165
2018-09-26T05:55:42.496Z,170
2018-09-26T05:56:42.491Z,180
2018-09-26T05:57:42.227Z,185
2018-09-26T05:58:42.216Z,200
2018-09-26T05:59:42.884Z,200
2018-09-26T06:00:42.453Z,220
2018-09-26T06:01:42.189Z,230
2018-09-26T06:02:42.428Z,235
2018-09-26T06:03:42.165Z,225
2018-09-26T06:04:42.406Z,225
2018-09-26T06:05:42.633Z,225
2018-09-26T06:06:42.133Z,230
2018-09-26T06:07:41.872Z,280
2018-09-26T06:08:42.122Z,250
2018-09-26T06:09:42.355Z,245
2018-09-26T06:10:42.098Z,295
2018-09-26T06:11:42.097Z,330
2018-09-26T06:12:42.422Z,290
2018-09-26T06:13:42.328Z,295
2018-09-26T06:14:42.063Z,290
2018-09-26T06:15:42.317Z,265
2018-09-26T06:16:42.297Z,260
2018-09-26T06:17:42.294Z,260
2018-09-26T06:18:42.284Z,255
2018-09-26T06:19:42.272Z,255
2018-09-26T06:20:42.015Z,260
2018-09-26T06:21:42.259Z,265
2018-09-26T06:22:42.251Z,275
2018-09-26T06:23:42.244Z,280
2018-09-26T06:24:42.515Z,275
2018-09-26T06:25:42.228Z,275
2018-09-26T06:26:41.972Z,270
2018-09-26T06:27:42.231Z,270
2018-09-26T06:28:42.210Z,265
2018-09-26T06:29:42.295Z,265
2018-09-26T06:30:41.936Z,265
2018-09-26T06:31:41.681Z,260
2018-09-26T06:32:42.171Z,255
2018-09-26T06:33:42.172Z,255
2018-09-26T06:34:41.903Z,255
2018-09-26T06:35:41.896Z,255
2018-09-26T06:36:42.143Z,260
2018-09-26T06:37:42.135Z,255
2018-09-26T06:38:41.878Z,255
2018-09-26T06:39:41.874Z,255
2018-09-26T06:40:41.609Z,265
2018-09-26T06:41:42.111Z,270
2018-09-26T06:42:41.850Z,275
2018-09-26T06:43:42.125Z,285
2018-09-26T06:44:42.085Z,295
2018-09-26T06:45:42.077Z,310
2018-09-26T06:46:42.086Z,320
2018-09-26T06:47:42.471Z,330
2018-09-26T06:48:41.810Z,350
2018-09-26T06:49:42.051Z,365
2018-09-26T06:50:42.035Z,385
2018-09-26T06:51:42.028Z,395
2018-09-26T06:52:42.029Z,400
2018-09-26T06:53:41.767Z,400
2018-09-26T06:54:42.014Z,400
2018-09-26T06:55:41.501Z,400
2018-09-26T06:56:42.031Z,385
2018-09-26T06:57:41.736Z,370
2018-09-26T06:58:41.729Z,355
2018-09-26T06:59:41.972Z,400
2018-09-26T07:00:41.971Z,390
2018-09-26T07:01:42.018Z,325
2018-09-26T07:02:41.706Z,290
2018-09-26T07:03:41.446Z,285
2018-09-26T07:04:41.698Z,280
2018-09-26T07:05:41.937Z,270
2018-09-26T07:06:41.930Z,260
2018-09-26T07:07:41.926Z,250
2018-09-26T07:08:41.933Z,245
2018-09-26T07:09:41.915Z,240
2018-09-26T07:10:41.908Z,240
2018-09-26T07:11:41.650Z,245
2018-09-26T07:12:41.901Z,245
2018-09-26T07:13:41.893Z,245
2018-09-26T07:14:41.900Z,240
2018-09-26T07:15:41.876Z,240
2018-09-26T07:16:41.873Z,245
2018-09-26T07:17:41.609Z,250
2018-09-26T07:18:41.602Z,260
2018-09-26T07:19:41.604Z,265
2018-09-26T07:20:41.589Z,275
2018-09-26T07:21:42.233Z,285
2018-09-26T07:22:41.832Z,290
2018-09-26T07:23:41.819Z,295
2018-09-26T07:24:41.569Z,285
2018-09-26T07:25:41.559Z,285
2018-09-26T07:26:41.805Z,280
2018-09-26T07:27:41.540Z,280
2018-09-26T07:28:41.555Z,275
2018-09-26T07:29:56.459Z,260
2018-09-26T07:30:41.527Z,260
2018-09-26T07:31:41.891Z,260
2018-09-26T07:32:41.780Z,270
2018-09-26T07:33:41.758Z,285
2018-09-26T07:34:41.760Z,285
2018-09-26T07:35:41.747Z,290
2018-09-26T07:36:41.747Z,315
2018-09-26T07:37:41.231Z,400
2018-09-26T07:38:42.110Z,360
2018-09-26T07:39:41.219Z,620
2018-09-26T07:40:41.464Z,845
2018-09-26T07:41:41.751Z,765
2018-09-26T07:42:41.702Z,935
2018-09-26T07:43:41.697Z,925
2018-09-26T07:44:41.749Z,955
2018-09-26T07:45:42.399Z,945
2018-09-26T07:46:41.442Z,990
2018-09-26T07:47:41.677Z,790
2018-09-26T07:48:41.181Z,650
2018-09-26T07:49:41.674Z,410
2018-09-26T07:50:41.669Z,380
2018-09-26T07:51:41.670Z,390
2018-09-26T07:52:41.656Z,395
2018-09-26T07:53:41.655Z,415
2018-09-26T07:54:41.645Z,425
2018-09-26T07:55:41.640Z,430
2018-09-26T07:56:41.141Z,445
2018-09-26T07:57:41.386Z,460
2018-09-26T07:58:41.377Z,470
2018-09-26T07:59:40.873Z,485
2018-09-26T08:00:41.500Z,480
2018-09-26T08:01:41.401Z,485
2018-09-26T08:02:41.107Z,485
2018-09-26T08:03:41.609Z,465
2018-09-26T08:04:41.102Z,440
2018-09-26T08:05:41.349Z,415
2018-09-26T08:06:41.342Z,395
2018-09-26T08:07:41.350Z,380
2018-09-26T08:08:41.367Z,365
2018-09-26T08:09:41.593Z,360
2018-09-26T08:10:41.589Z,350
2018-09-26T08:11:41.562Z,345
2018-09-26T08:12:41.084Z,330
2018-09-26T08:13:41.582Z,320
2018-09-26T08:14:41.588Z,320
2018-09-26T08:15:41.325Z,335
2018-09-26T08:16:41.568Z,350
2018-09-26T08:17:41.554Z,380
2018-09-26T08:18:42.226Z,400
2018-09-26T08:19:41.545Z,430
2018-09-26T08:20:41.540Z,455
2018-09-26T08:21:41.292Z,480
2018-09-26T08:22:41.536Z,490
2018-09-26T08:23:41.377Z,495
2018-09-26T08:24:41.782Z,505
2018-09-26T08:25:41.518Z,510
2018-09-26T08:26:41.520Z,505
2018-09-26T08:27:41.271Z,495
2018-09-26T08:28:41.508Z,485
2018-09-26T08:29:41.296Z,480
2018-09-26T08:30:41.260Z,470
2018-09-26T08:31:41.255Z,465
2018-09-26T08:32:41.533Z,460
2018-09-26T08:33:41.238Z,460
2018-09-26T08:34:41.237Z,470
2018-09-26T08:35:41.541Z,465
2018-09-26T08:36:41.484Z,470
2018-09-26T08:37:41.221Z,470
2018-09-26T08:38:41.478Z,470
2018-09-26T08:39:41.475Z,470
2018-09-26T08:40:41.212Z,475
2018-09-26T08:41:41.460Z,490
2018-09-26T08:42:41.453Z,510
2018-09-26T08:43:41.203Z,535
2018-09-26T08:44:41.452Z,565
2018-09-26T08:45:41.192Z,575
2018-09-26T08:46:41.190Z,590
2018-09-26T08:47:41.435Z,590
2018-09-26T08:48:41.437Z,590
2018-09-26T08:49:41.435Z,595
2018-09-26T08:50:41.435Z,600
2018-09-26T08:51:41.430Z,610
2018-09-26T08:52:41.425Z,615
2018-09-26T08:53:41.640Z,615
2018-09-26T08:54:41.416Z,595
2018-09-26T08:55:41.459Z,575
2018-09-26T08:56:41.422Z,570
2018-09-26T08:57:41.405Z,565
2018-09-26T08:58:41.401Z,570
2018-09-26T08:59:41.293Z,575
2018-09-26T09:00:40.896Z,585
2018-09-26T09:01:41.143Z,580
2018-09-26T09:02:41.145Z,585
2018-09-26T09:03:41.395Z,590
2018-09-26T09:04:41.135Z,585
2018-09-26T09:05:41.413Z,590
2018-09-26T09:06:41.425Z,585
2018-09-26T09:07:41.129Z,585
2018-09-26T09:08:41.137Z,575
2018-09-26T09:09:41.386Z,570
2018-09-26T09:10:41.390Z,570
2018-09-26T09:11:41.656Z,555
2018-09-26T09:12:41.370Z,545
2018-09-26T09:13:41.112Z,540
2018-09-26T09:14:42.771Z,530
2018-09-26T09:15:41.110Z,530
2018-09-26T09:16:41.114Z,520
2018-09-26T09:17:41.213Z,510
2018-09-26T09:18:40.600Z,500
2018-09-26T09:19:41.352Z,485
2018-09-26T09:20:41.095Z,480
2018-09-26T09:21:40.841Z,470
2018-09-26T09:22:41.103Z,460
2018-09-26T09:23:41.344Z,450
2018-09-26T09:24:41.088Z,440
2018-09-26T09:25:41.083Z,435
2018-09-26T09:26:41.590Z,425
2018-09-26T09:27:41.449Z,415
2018-09-26T09:28:41.335Z,405
2018-09-26T09:29:41.079Z,405
2018-09-26T09:30:41.325Z,395
2018-09-26T09:31:41.326Z,395
2018-09-26T09:32:41.075Z,395
2018-09-26T09:33:41.319Z,395
2018-09-26T09:34:40.816Z,390
2018-09-26T09:35:41.059Z,390
2018-09-26T09:36:40.659Z,385
2018-09-26T09:37:41.056Z,380
2018-09-26T09:38:41.315Z,380
2018-09-26T09:39:41.302Z,380
2018-09-26T09:40:40.792Z,375
2018-09-26T09:41:40.802Z,380
2018-09-26T09:42:40.790Z,380
2018-09-26T09:43:40.784Z,385
2018-09-26T09:44:41.707Z,390
2018-09-26T09:45:41.296Z,395
2018-09-26T09:46:41.025Z,395
2018-09-26T09:47:41.275Z,405
2018-09-26T09:48:41.277Z,400
2018-09-26T09:49:41.018Z,400
2018-09-26T09:50:41.018Z,405
2018-09-26T09:51:41.297Z,400
2018-09-26T09:52:41.058Z,400
2018-09-26T09:53:41.258Z,400
2018-09-26T09:54:41.008Z,405
2018-09-26T09:55:41.258Z,405
2018-09-26T09:56:41.028Z,410
2018-09-26T09:57:41.559Z,410
2018-09-26T09:58:40.993Z,420
2018-09-26T09:59:40.989Z,410
2018-09-26T10:00:41.235Z,410
2018-09-26T10:01:41.237Z,405
2018-09-26T10:02:41.403Z,405
2018-09-26T10:03:41.233Z,395
2018-09-26T10:04:41.266Z,385
2018-09-26T10:05:40.969Z,370
2018-09-26T10:06:40.978Z,360
2018-09-26T10:07:41.227Z,350
2018-09-26T10:08:41.429Z,340
2018-09-26T10:09:40.966Z,335
2018-09-26T10:10:41.211Z,325
2018-09-26T10:11:40.952Z,325
2018-09-26T10:12:41.206Z,320
2018-09-26T10:13:41.201Z,315
2018-09-26T10:14:55.870Z,315
2018-09-26T10:15:41.199Z,315
2018-09-26T10:16:40.943Z,315
2018-09-26T10:17:41.499Z,320
2018-09-26T10:18:41.188Z,320
2018-09-26T10:19:41.185Z,325
2018-09-26T10:20:41.180Z,335
2018-09-26T10:21:40.931Z,340
2018-09-26T10:22:41.171Z,345
2018-09-26T10:23:40.921Z,350
2018-09-26T10:24:41.168Z,355
2018-09-26T10:25:41.176Z,355
2018-09-26T10:26:41.169Z,355
2018-09-26T10:27:41.161Z,355
2018-09-26T10:28:40.911Z,360
2018-09-26T10:29:40.900Z,360
2018-09-26T10:30:41.167Z,360
2018-09-26T10:31:41.144Z,360
2018-09-26T10:32:41.142Z,365
2018-09-26T10:33:41.146Z,365
2018-09-26T10:34:40.892Z,365
2018-09-26T10:35:41.135Z,365
2018-09-26T10:36:41.130Z,365
2018-09-26T10:37:41.125Z,365
2018-09-26T10:38:41.123Z,365
2018-09-26T10:39:41.127Z,370
2018-09-26T10:40:41.185Z,360
2018-09-26T10:41:41.147Z,360
2018-09-26T10:42:41.108Z,355
2018-09-26T10:43:41.111Z,360
2018-09-26T10:44:41.112Z,365
2018-09-26T10:45:40.852Z,365
2018-09-26T10:46:41.437Z,370
2018-09-26T10:47:41.098Z,380
2018-09-26T10:48:41.093Z,390
2018-09-26T10:49:41.095Z,405
2018-09-26T10:50:41.141Z,420
2018-09-26T10:51:41.103Z,425
2018-09-26T10:52:41.089Z,435
2018-09-26T10:53:41.076Z,445
2018-09-26T10:54:41.074Z,450
2018-09-26T10:55:41.071Z,450
2018-09-26T10:56:41.591Z,455
2018-09-26T10:57:40.565Z,450
2018-09-26T10:58:41.069Z,445
2018-09-26T10:59:41.060Z,435
2018-09-26T11:00:41.058Z,430
2018-09-26T11:01:41.054Z,420
2018-09-26T11:02:41.007Z,415
2018-09-26T11:03:41.057Z,400
2018-09-26T11:04:41.055Z,390
2018-09-26T11:05:41.049Z,375
2018-09-26T11:06:41.047Z,360
2018-09-26T11:07:41.037Z,345
2018-09-26T11:08:40.533Z,335
2018-09-26T11:09:41.045Z,325
2018-09-26T11:10:41.033Z,315
2018-09-26T11:11:41.029Z,310
2018-09-26T11:12:40.727Z,305
2018-09-26T11:13:40.776Z,295
2018-09-26T11:14:40.772Z,285
2018-09-26T11:15:40.770Z,280
2018-09-26T11:16:40.764Z,270
2018-09-26T11:17:40.607Z,260
2018-09-26T11:18:40.547Z,250
2018-09-26T11:19:41.016Z,250
2018-09-26T11:20:41.135Z,240
2018-09-26T11:21:40.759Z,235
2018-09-26T11:22:40.748Z,240
2018-09-26T11:23:40.749Z,235
2018-09-26T11:24:40.739Z,235
2018-09-26T11:25:40.992Z,235
2018-09-26T11:26:41.328Z,235
2018-09-26T11:27:40.988Z,235
2018-09-26T11:28:40.733Z,235
2018-09-26T11:29:40.729Z,235
2018-09-26T11:30:40.970Z,235
2018-09-26T11:31:40.969Z,235
2018-09-26T11:32:40.712Z,235
2018-09-26T11:33:41.182Z,235
2018-09-26T11:34:40.967Z,235
2018-09-26T11:35:40.977Z,235
2018-09-26T11:36:40.952Z,240
2018-09-26T11:37:40.699Z,240
2018-09-26T11:38:40.973Z,235
2018-09-26T11:39:40.690Z,235
2018-09-26T11:40:40.949Z,235
2018-09-26T11:41:40.932Z,235
2018-09-26T11:42:40.933Z,235
2018-09-26T11:43:40.673Z,235
2018-09-26T11:44:40.937Z,235
2018-09-26T11:45:40.668Z,230
2018-09-26T11:46:40.667Z,230
2018-09-26T11:47:40.460Z,225
2018-09-26T11:48:40.908Z,225
2018-09-26T11:49:40.657Z,225
2018-09-26T11:50:40.950Z,220
2018-09-26T11:51:40.658Z,225
2018-09-26T11:52:40.642Z,225
2018-09-26T11:53:40.899Z,225
2018-09-26T11:54:40.382Z,230
2018-09-26T11:55:40.893Z,230
2018-09-26T11:56:41.122Z,230
2018-09-26T11:57:40.623Z,235
2018-09-26T11:58:40.871Z,235
2018-09-26T11:59:40.864Z,240
2018-09-26T12:00:40.862Z,240
2018-09-26T12:01:40.663Z,240
2018-09-26T12:02:40.707Z,245
2018-09-26T12:03:40.848Z,240
2018-09-26T12:04:40.596Z,240
2018-09-26T12:05:40.589Z,245
2018-09-26T12:06:40.839Z,240
2018-09-26T12:07:41.649Z,245
2018-09-26T12:08:40.843Z,245
2018-09-26T12:09:40.576Z,250
2018-09-26T12:10:40.836Z,260
2018-09-26T12:11:40.824Z,270
2018-09-26T12:12:40.816Z,290
2018-09-26T12:13:40.931Z,305
2018-09-26T12:14:40.564Z,330
2018-09-26T12:15:40.552Z,350
2018-09-26T12:16:40.558Z,375
2018-09-26T12:17:40.548Z,395
2018-09-26T12:18:40.792Z,400
2018-09-26T12:19:40.791Z,400
2018-09-26T12:20:40.531Z,395
2018-09-26T12:21:41.016Z,390
2018-09-26T12:22:40.926Z,380
2018-09-26T12:23:40.775Z,375
2018-09-26T12:24:40.015Z,365
2018-09-26T12:25:40.266Z,355
2018-09-26T12:26:40.257Z,355
2018-09-26T12:27:40.592Z,360
2018-09-26T12:28:40.262Z,365
2018-09-26T12:29:40.768Z,365
2018-09-26T12:30:40.500Z,370
2018-09-26T12:31:40.751Z,380
2018-09-26T12:32:40.747Z,385
2018-09-26T12:33:40.237Z,395
2018-09-26T12:34:40.561Z,400
2018-09-26T12:35:40.233Z,405
2018-09-26T12:36:40.495Z,410
2018-09-26T12:37:40.726Z,410
2018-09-26T12:38:40.734Z,410
2018-09-26T12:39:40.480Z,410
2018-09-26T12:40:40.729Z,400
2018-09-26T12:41:40.468Z,405
2018-09-26T12:42:40.946Z,400
2018-09-26T12:43:40.459Z,400
2018-09-26T12:44:40.715Z,410
2018-09-26T12:45:40.707Z,410
2018-09-26T12:46:40.700Z,415
2018-09-26T12:47:40.703Z,420
2018-09-26T12:48:40.921Z,420
2018-09-26T12:49:40.452Z,420
2018-09-26T12:50:40.701Z,420
2018-09-26T12:51:40.442Z,415
2018-09-26T12:52:40.690Z,415
2018-09-26T12:53:40.909Z,410
2018-09-26T12:54:40.430Z,410
2018-09-26T12:55:40.688Z,405
2018-09-26T12:56:40.680Z,400
2018-09-26T12:57:40.423Z,400
2018-09-26T12:58:40.683Z,390
2018-09-26T12:59:40.673Z,390
2018-09-26T13:00:40.925Z,390
2018-09-26T13:01:40.673Z,400
2018-09-26T13:02:40.973Z,400
2018-09-26T13:03:40.160Z,405
2018-09-26T13:04:40.414Z,405
2018-09-26T13:05:40.151Z,410
2018-09-26T13:06:40.400Z,410
2018-09-26T13:07:40.652Z,400
2018-09-26T13:08:40.650Z,400
2018-09-26T13:09:40.399Z,400
2018-09-26T13:10:40.395Z,390
2018-09-26T13:11:40.653Z,380
2018-09-26T13:12:40.394Z,375
2018-09-26T13:13:40.646Z,370
2018-09-26T13:14:40.400Z,365
2018-09-26T13:15:40.649Z,365
2018-09-26T13:16:40.635Z,370
2018-09-26T13:17:40.688Z,370
2018-09-26T13:18:40.629Z,375
2018-09-26T13:19:40.633Z,375
2018-09-26T13:20:40.119Z,375
2018-09-26T13:21:40.619Z,385
2018-09-26T13:22:40.369Z,385
2018-09-26T13:23:40.365Z,385
2018-09-26T13:24:40.623Z,390
2018-09-26T13:25:40.710Z,380
2018-09-26T13:26:40.620Z,375
2018-09-26T13:27:40.609Z,365
2018-09-26T13:28:40.105Z,355
2018-09-26T13:29:40.606Z,340
2018-09-26T13:30:40.357Z,320
2018-09-26T13:31:40.606Z,305
2018-09-26T13:32:40.600Z,295
2018-09-26T13:33:40.594Z,285
2018-09-26T13:34:40.597Z,280
2018-09-26T13:35:40.588Z,280
2018-09-26T13:36:40.632Z,280
2018-09-26T13:37:40.591Z,275
2018-09-26T13:38:40.076Z,275
2018-09-26T13:39:40.943Z,270
2018-09-26T13:40:40.575Z,265
2018-09-26T13:41:40.575Z,260
2018-09-26T13:42:40.574Z,265
2018-09-26T13:43:40.565Z,260
2018-09-26T13:44:40.567Z,255
2018-09-26T13:45:40.684Z,255
2018-09-26T13:46:40.799Z,255
2018-09-26T13:47:40.305Z,255
2018-09-26T13:48:40.561Z,255
2018-09-26T13:49:40.556Z,255
2018-09-26T13:50:40.302Z,255
2018-09-26T13:51:40.296Z,255
2018-09-26T13:52:40.548Z,250
2018-09-26T13:53:40.554Z,245
2018-09-26T13:54:40.963Z,240
2018-09-26T13:55:40.544Z,230
2018-09-26T13:56:40.303Z,225
2018-09-26T13:57:40.539Z,220
2018-09-26T13:58:40.276Z,215
2018-09-26T13:59:40.579Z,220
2018-09-26T14:00:40.278Z,220
2018-09-26T14:01:41.040Z,220
2018-09-26T14:02:40.285Z,225
2018-09-26T14:03:40.264Z,215
2018-09-26T14:04:40.569Z,210
2018-09-26T14:05:40.509Z,210
2018-09-26T14:06:40.506Z,205
2018-09-26T14:07:40.499Z,200
2018-09-26T14:08:40.949Z,195